KJWY

Details ICAO KJWY
Name Waxahachie/Mid-Way Rgnl
Region United States
Timezone America/Chicago (UTC-5.0)
Plans Departing 2
Arriving 2
Stats Elevation 713 ft / 217 m (AMSL)
Location 32.458133° -96.912226°
Runways 1
Magnetic Variation 3.314° E
Sunrise 2018-05-22 11:26:37 UTC / 2018-05-22 06:26:37 Local
Sunset 2018-05-23 01:24:55 UTC / 2018-05-22 20:24:55 Local
Advertisement - Login to hide

Runways

ID Width Length Bearing (true) Bearing (mag) Surface Threshold Offset Overrun Length
18 98 ft / 30 m 6,506 ft / 1,983 m 184.00° 180.69° Asphalt 0 ft / 0 m 0 ft / 0 m
36 98 ft / 30 m 6,506 ft / 1,983 m 4.00° 0.69° Asphalt 0 ft / 0 m 0 ft / 0 m

Map

Weather


0- 5 10 15 20 25 30 35+ Temperature / ° C

Clouds and Precipitation
Forecast for 2018-05-23 00:00 UTC. Updated 3 hours ago

Ground ~20,000 ft ~40,000 ft Winds

METAR

KJWY 230155Z AUTO 10003KT 10SM CLR 25/21 A2997 RMK AO2 T02490209

TAF

Not found

Frequencies

Recorded 119.57 MHz AWOS 3
Approach 125.20 MHz REGIONAL APP/DEP
Unicom 122.97 MHz CTAF/UNICOM
Warning: Do not use this data for real-world aviation or navigation. No guarantee of current accuracy is given.